Terminal Aerodrome Forecast
Issued by NWS Wilmington, NC

Home | Current Version | Previous Version | Text Only | Print | Product List | Glossary On
Versions: 1 2 3 4 5 6 7 8 9 10 11 12 13 14 15 16 17 18 19
207
FTUS42 KILM 300529
TAFILM
TAF
KILM 300529Z 3006/3106 22005KT P6SM VCTS BKN060CB
     FM301100 23004KT P6SM BKN050
     FM301700 27007KT P6SM SCT050
     FM302200 26006KT P6SM BKN200=

USA.gov is the U.S. government's official web portal to all federal, state and local government web resources and services.